sensor_id;sensor_type;location;lat;lon;timestamp;P1;durP1;ratioP1;P2;durP2;ratioP2
30062;SDS011;16889;67.864;24.990;2022-09-13T00:02:31;0.77;;;0.40;;
30062;SDS011;16889;67.864;24.990;2022-09-13T00:07:17;0.45;;;0.40;;
30062;SDS011;16889;67.864;24.990;2022-09-13T00:12:03;0.98;;;0.57;;
30062;SDS011;16889;67.864;24.990;2022-09-13T00:16:49;0.40;;;0.40;;
30062;SDS011;16889;67.864;24.990;2022-09-13T00:21:35;2.30;;;0.30;;
30062;SDS011;16889;67.864;24.990;2022-09-13T00:26:22;0.30;;;0.30;;
30062;SDS011;16889;67.864;24.990;2022-09-13T00:31:10;1.65;;;0.40;;
30062;SDS011;16889;67.864;24.990;2022-09-13T00:35:56;0.40;;;0.40;;
30062;SDS011;16889;67.864;24.990;2022-09-13T00:40:42;1.58;;;0.52;;
30062;SDS011;16889;67.864;24.990;2022-09-13T00:45:28;2.53;;;0.40;;
30062;SDS011;16889;67.864;24.990;2022-09-13T00:50:16;0.40;;;0.40;;
30062;SDS011;16889;67.864;24.990;2022-09-13T00:55:15;1.10;;;0.50;;
30062;SDS011;16889;67.864;24.990;2022-09-13T01:00:24;1.05;;;0.50;;
30062;SDS011;16889;67.864;24.990;2022-09-13T01:05:10;0.40;;;0.40;;
30062;SDS011;16889;67.864;24.990;2022-09-13T01:09:58;0.77;;;0.50;;
30062;SDS011;16889;67.864;24.990;2022-09-13T01:14:47;3.50;;;0.45;;
30062;SDS011;16889;67.864;24.990;2022-09-13T01:19:34;4.43;;;0.50;;
30062;SDS011;16889;67.864;24.990;2022-09-13T01:24:41;2.33;;;0.60;;
30062;SDS011;16889;67.864;24.990;2022-09-13T01:34:29;1.02;;;0.50;;
30062;SDS011;16889;67.864;24.990;2022-09-13T01:44:39;1.45;;;0.70;;
30062;SDS011;16889;67.864;24.990;2022-09-13T01:54:44;3.10;;;0.80;;
30062;SDS011;16889;67.864;24.990;2022-09-13T01:59:49;5.97;;;0.65;;
30062;SDS011;16889;67.864;24.990;2022-09-13T02:04:42;3.17;;;0.80;;
30062;SDS011;16889;67.864;24.990;2022-09-13T02:09:39;3.47;;;0.57;;
30062;SDS011;16889;67.864;24.990;2022-09-13T02:14:34;1.00;;;0.50;;
30062;SDS011;16889;67.864;24.990;2022-09-13T02:24:41;1.30;;;0.60;;
30062;SDS011;16889;67.864;24.990;2022-09-13T02:29:32;0.50;;;0.50;;
30062;SDS011;16889;67.864;24.990;2022-09-13T02:34:21;3.72;;;0.45;;
30062;SDS011;16889;67.864;24.990;2022-09-13T02:39:15;0.35;;;0.35;;
30062;SDS011;16889;67.864;24.990;2022-09-13T02:44:08;0.40;;;0.40;;
30062;SDS011;16889;67.864;24.990;2022-09-13T02:54:04;1.27;;;0.68;;
30062;SDS011;16889;67.864;24.990;2022-09-13T02:59:15;1.35;;;0.60;;
30062;SDS011;16889;67.864;24.990;2022-09-13T03:04:04;0.70;;;0.60;;
30062;SDS011;16889;67.864;24.990;2022-09-13T03:08:51;2.40;;;0.50;;
30062;SDS011;16889;67.864;24.990;2022-09-13T03:13:59;1.38;;;0.60;;
30062;SDS011;16889;67.864;24.990;2022-09-13T03:19:09;0.73;;;0.43;;
30062;SDS011;16889;67.864;24.990;2022-09-13T03:34:33;12.80;;;1.58;;
30062;SDS011;16889;67.864;24.990;2022-09-13T03:39:25;2.67;;;0.60;;
30062;SDS011;16889;67.864;24.990;2022-09-13T03:44:15;9.30;;;1.00;;
30062;SDS011;16889;67.864;24.990;2022-09-13T03:49:06;1.90;;;0.82;;
30062;SDS011;16889;67.864;24.990;2022-09-13T03:54:02;1.45;;;0.70;;
30062;SDS011;16889;67.864;24.990;2022-09-13T03:58:50;1.75;;;0.60;;
30062;SDS011;16889;67.864;24.990;2022-09-13T04:03:37;0.70;;;0.60;;
30062;SDS011;16889;67.864;24.990;2022-09-13T04:08:25;1.23;;;0.65;;
30062;SDS011;16889;67.864;24.990;2022-09-13T04:13:11;1.00;;;0.70;;
30062;SDS011;16889;67.864;24.990;2022-09-13T04:17:57;1.23;;;0.70;;
30062;SDS011;16889;67.864;24.990;2022-09-13T04:22:49;3.67;;;1.95;;
30062;SDS011;16889;67.864;24.990;2022-09-13T04:27:38;1.48;;;0.70;;
30062;SDS011;16889;67.864;24.990;2022-09-13T04:32:24;1.35;;;0.60;;
30062;SDS011;16889;67.864;24.990;2022-09-13T04:37:10;0.60;;;0.60;;
30062;SDS011;16889;67.864;24.990;2022-09-13T04:41:56;0.63;;;0.57;;
30062;SDS011;16889;67.864;24.990;2022-09-13T04:46:44;2.97;;;0.60;;
30062;SDS011;16889;67.864;24.990;2022-09-13T04:51:32;0.77;;;0.50;;
30062;SDS011;16889;67.864;24.990;2022-09-13T04:56:18;0.65;;;0.50;;
30062;SDS011;16889;67.864;24.990;2022-09-13T05:01:05;0.80;;;0.60;;
30062;SDS011;16889;67.864;24.990;2022-09-13T05:05:52;0.40;;;0.40;;
30062;SDS011;16889;67.864;24.990;2022-09-13T05:10:38;2.70;;;0.50;;
30062;SDS011;16889;67.864;24.990;2022-09-13T05:15:24;0.70;;;0.60;;
30062;SDS011;16889;67.864;24.990;2022-09-13T05:20:10;0.60;;;0.60;;
30062;SDS011;16889;67.864;24.990;2022-09-13T05:24:56;1.00;;;0.57;;
30062;SDS011;16889;67.864;24.990;2022-09-13T05:29:42;1.05;;;0.57;;
30062;SDS011;16889;67.864;24.990;2022-09-13T05:34:28;0.90;;;0.68;;
30062;SDS011;16889;67.864;24.990;2022-09-13T05:39:15;0.70;;;0.68;;
30062;SDS011;16889;67.864;24.990;2022-09-13T05:44:06;0.75;;;0.68;;
30062;SDS011;16889;67.864;24.990;2022-09-13T05:48:52;0.85;;;0.70;;
30062;SDS011;16889;67.864;24.990;2022-09-13T05:53:45;0.50;;;0.50;;
30062;SDS011;16889;67.864;24.990;2022-09-13T05:58:32;1.10;;;0.50;;
30062;SDS011;16889;67.864;24.990;2022-09-13T06:03:19;1.67;;;0.70;;
30062;SDS011;16889;67.864;24.990;2022-09-13T06:08:06;0.60;;;0.50;;
30062;SDS011;16889;67.864;24.990;2022-09-13T06:12:52;0.60;;;0.60;;
30062;SDS011;16889;67.864;24.990;2022-09-13T06:17:38;1.80;;;1.58;;
30062;SDS011;16889;67.864;24.990;2022-09-13T06:22:24;3.50;;;2.60;;
30062;SDS011;16889;67.864;24.990;2022-09-13T06:27:17;5.15;;;2.97;;
30062;SDS011;16889;67.864;24.990;2022-09-13T06:32:03;3.55;;;2.33;;
30062;SDS011;16889;67.864;24.990;2022-09-13T06:36:49;3.50;;;2.83;;
30062;SDS011;16889;67.864;24.990;2022-09-13T06:41:35;4.18;;;3.47;;
30062;SDS011;16889;67.864;24.990;2022-09-13T06:46:21;4.63;;;2.80;;
30062;SDS011;16889;67.864;24.990;2022-09-13T06:51:09;3.35;;;2.67;;
30062;SDS011;16889;67.864;24.990;2022-09-13T06:56:00;3.15;;;2.80;;
30062;SDS011;16889;67.864;24.990;2022-09-13T07:00:50;3.15;;;2.40;;
30062;SDS011;16889;67.864;24.990;2022-09-13T07:05:36;2.80;;;2.50;;
30062;SDS011;16889;67.864;24.990;2022-09-13T07:10:22;2.80;;;2.50;;
30062;SDS011;16889;67.864;24.990;2022-09-13T07:15:08;3.00;;;2.50;;
30062;SDS011;16889;67.864;24.990;2022-09-13T07:19:54;2.90;;;2.55;;
30062;SDS011;16889;67.864;24.990;2022-09-13T07:24:40;3.92;;;3.03;;
30062;SDS011;16889;67.864;24.990;2022-09-13T07:29:26;4.05;;;3.38;;
30062;SDS011;16889;67.864;24.990;2022-09-13T07:34:19;5.88;;;3.63;;
30062;SDS011;16889;67.864;24.990;2022-09-13T07:39:06;5.18;;;3.78;;
30062;SDS011;16889;67.864;24.990;2022-09-13T07:43:53;6.03;;;4.28;;
30062;SDS011;16889;67.864;24.990;2022-09-13T07:48:39;7.93;;;4.97;;
30062;SDS011;16889;67.864;24.990;2022-09-13T07:53:26;9.27;;;5.60;;
30062;SDS011;16889;67.864;24.990;2022-09-13T07:58:13;9.68;;;5.57;;
30062;SDS011;16889;67.864;24.990;2022-09-13T08:02:59;9.43;;;5.63;;
30062;SDS011;16889;67.864;24.990;2022-09-13T08:07:45;9.50;;;6.00;;
30062;SDS011;16889;67.864;24.990;2022-09-13T08:12:31;10.02;;;6.05;;
30062;SDS011;16889;67.864;24.990;2022-09-13T08:17:17;10.65;;;6.82;;
30062;SDS011;16889;67.864;24.990;2022-09-13T08:22:03;11.02;;;6.80;;
30062;SDS011;16889;67.864;24.990;2022-09-13T08:26:49;12.77;;;6.55;;
30062;SDS011;16889;67.864;24.990;2022-09-13T08:31:38;9.73;;;6.25;;
30062;SDS011;16889;67.864;24.990;2022-09-13T08:36:24;8.15;;;5.55;;
30062;SDS011;16889;67.864;24.990;2022-09-13T08:41:18;7.97;;;4.80;;
30062;SDS011;16889;67.864;24.990;2022-09-13T08:46:15;10.82;;;4.30;;
30062;SDS011;16889;67.864;24.990;2022-09-13T08:51:25;7.40;;;4.05;;
30062;SDS011;16889;67.864;24.990;2022-09-13T09:05:57;5.00;;;3.80;;
30062;SDS011;16889;67.864;24.990;2022-09-13T09:10:45;5.10;;;3.53;;
30062;SDS011;16889;67.864;24.990;2022-09-13T09:15:57;6.65;;;3.45;;
30062;SDS011;16889;67.864;24.990;2022-09-13T09:21:06;7.90;;;3.78;;
30062;SDS011;16889;67.864;24.990;2022-09-13T09:31:08;5.63;;;4.13;;
30062;SDS011;16889;67.864;24.990;2022-09-13T09:36:05;7.47;;;4.55;;
30062;SDS011;16889;67.864;24.990;2022-09-13T09:41:02;7.80;;;4.82;;
30062;SDS011;16889;67.864;24.990;2022-09-13T09:46:00;6.25;;;4.43;;
30062;SDS011;16889;67.864;24.990;2022-09-13T09:50:50;6.03;;;4.43;;
30062;SDS011;16889;67.864;24.990;2022-09-13T09:55:44;6.53;;;4.50;;
30062;SDS011;16889;67.864;24.990;2022-09-13T10:00:35;6.15;;;4.20;;
30062;SDS011;16889;67.864;24.990;2022-09-13T10:05:34;4.95;;;4.00;;
30062;SDS011;16889;67.864;24.990;2022-09-13T10:10:25;4.90;;;3.92;;
30062;SDS011;16889;67.864;24.990;2022-09-13T10:15:25;5.30;;;3.70;;
30062;SDS011;16889;67.864;24.990;2022-09-13T10:20:20;6.63;;;4.57;;
30062;SDS011;16889;67.864;24.990;2022-09-13T10:25:17;7.15;;;3.92;;
30062;SDS011;16889;67.864;24.990;2022-09-13T10:30:16;4.57;;;3.33;;
30062;SDS011;16889;67.864;24.990;2022-09-13T10:35:15;4.60;;;3.57;;
30062;SDS011;16889;67.864;24.990;2022-09-13T10:40:04;6.03;;;3.78;;
30062;SDS011;16889;67.864;24.990;2022-09-13T10:45:07;3.67;;;3.10;;
30062;SDS011;16889;67.864;24.990;2022-09-13T10:50:20;5.85;;;3.33;;
30062;SDS011;16889;67.864;24.990;2022-09-13T11:00:06;6.85;;;3.38;;
30062;SDS011;16889;67.864;24.990;2022-09-13T11:05:09;4.88;;;3.80;;
30062;SDS011;16889;67.864;24.990;2022-09-13T11:16:11;6.85;;;4.32;;
30062;SDS011;16889;67.864;24.990;2022-09-13T11:20:43;6.80;;;4.30;;
30062;SDS011;16889;67.864;24.990;2022-09-13T11:47:13;6.97;;;4.88;;
30062;SDS011;16889;67.864;24.990;2022-09-13T11:52:21;8.80;;;3.97;;
30062;SDS011;16889;67.864;24.990;2022-09-13T11:57:45;6.65;;;3.80;;
30062;SDS011;16889;67.864;24.990;2022-09-13T12:08:17;4.75;;;3.90;;
30062;SDS011;16889;67.864;24.990;2022-09-13T12:13:18;5.25;;;4.07;;
30062;SDS011;16889;67.864;24.990;2022-09-13T12:18:10;6.18;;;3.70;;
30062;SDS011;16889;67.864;24.990;2022-09-13T12:22:58;4.13;;;3.72;;
30062;SDS011;16889;67.864;24.990;2022-09-13T12:32:39;5.32;;;3.40;;
30062;SDS011;16889;67.864;24.990;2022-09-13T13:03:22;6.65;;;3.78;;
30062;SDS011;16889;67.864;24.990;2022-09-13T13:18:25;7.00;;;4.70;;
30062;SDS011;16889;67.864;24.990;2022-09-13T13:23:16;11.23;;;5.10;;
30062;SDS011;16889;67.864;24.990;2022-09-13T13:33:28;7.70;;;5.55;;
30062;SDS011;16889;67.864;24.990;2022-09-13T13:43:27;6.28;;;5.07;;
30062;SDS011;16889;67.864;24.990;2022-09-13T13:48:15;7.30;;;5.47;;
30062;SDS011;16889;67.864;24.990;2022-09-13T13:53:30;9.48;;;6.10;;
30062;SDS011;16889;67.864;24.990;2022-09-13T14:08:41;9.65;;;6.65;;
30062;SDS011;16889;67.864;24.990;2022-09-13T14:18:49;10.25;;;7.15;;
30062;SDS011;16889;67.864;24.990;2022-09-13T14:29:20;10.93;;;7.22;;
30062;SDS011;16889;67.864;24.990;2022-09-13T14:39:07;9.73;;;7.25;;
30062;SDS011;16889;67.864;24.990;2022-09-13T14:43:53;12.07;;;7.90;;
30062;SDS011;16889;67.864;24.990;2022-09-13T14:48:59;11.07;;;8.27;;
30062;SDS011;16889;67.864;24.990;2022-09-13T14:53:49;10.48;;;8.25;;
30062;SDS011;16889;67.864;24.990;2022-09-13T14:58:43;13.93;;;8.18;;
30062;SDS011;16889;67.864;24.990;2022-09-13T15:03:32;12.55;;;8.23;;
30062;SDS011;16889;67.864;24.990;2022-09-13T15:13:17;14.25;;;9.07;;
30062;SDS011;16889;67.864;24.990;2022-09-13T15:18:21;11.75;;;8.15;;
30062;SDS011;16889;67.864;24.990;2022-09-13T15:23:14;11.00;;;8.05;;
30062;SDS011;16889;67.864;24.990;2022-09-13T15:28:03;11.70;;;8.02;;
30062;SDS011;16889;67.864;24.990;2022-09-13T15:33:02;18.05;;;8.23;;
30062;SDS011;16889;67.864;24.990;2022-09-13T15:37:59;16.23;;;8.48;;
30062;SDS011;16889;67.864;24.990;2022-09-13T15:43:03;11.48;;;7.50;;
30062;SDS011;16889;67.864;24.990;2022-09-13T15:47:50;15.45;;;8.48;;
30062;SDS011;16889;67.864;24.990;2022-09-13T15:52:37;13.73;;;7.60;;
30062;SDS011;16889;67.864;24.990;2022-09-13T15:57:23;8.73;;;6.70;;
30062;SDS011;16889;67.864;24.990;2022-09-13T16:02:16;8.95;;;6.47;;
30062;SDS011;16889;67.864;24.990;2022-09-13T16:07:07;7.05;;;5.50;;
30062;SDS011;16889;67.864;24.990;2022-09-13T16:11:53;6.43;;;5.57;;
30062;SDS011;16889;67.864;24.990;2022-09-13T16:16:39;9.27;;;6.35;;
30062;SDS011;16889;67.864;24.990;2022-09-13T16:21:26;12.27;;;6.28;;
30062;SDS011;16889;67.864;24.990;2022-09-13T16:26:13;5.65;;;4.95;;
30062;SDS011;16889;67.864;24.990;2022-09-13T16:30:59;10.05;;;6.00;;
30062;SDS011;16889;67.864;24.990;2022-09-13T16:35:45;7.85;;;5.72;;
30062;SDS011;16889;67.864;24.990;2022-09-13T16:40:31;6.13;;;5.22;;
30062;SDS011;16889;67.864;24.990;2022-09-13T16:45:17;8.95;;;5.13;;
30062;SDS011;16889;67.864;24.990;2022-09-13T16:50:04;7.07;;;5.20;;
30062;SDS011;16889;67.864;24.990;2022-09-13T16:54:50;9.53;;;5.80;;
30062;SDS011;16889;67.864;24.990;2022-09-13T16:59:36;11.57;;;5.13;;
30062;SDS011;16889;67.864;24.990;2022-09-13T17:04:22;8.43;;;4.85;;
30062;SDS011;16889;67.864;24.990;2022-09-13T17:09:09;7.70;;;4.75;;
30062;SDS011;16889;67.864;24.990;2022-09-13T17:13:55;5.28;;;4.25;;
30062;SDS011;16889;67.864;24.990;2022-09-13T17:18:41;6.25;;;3.92;;
30062;SDS011;16889;67.864;24.990;2022-09-13T17:23:27;4.63;;;4.03;;
30062;SDS011;16889;67.864;24.990;2022-09-13T17:28:16;6.22;;;4.05;;
30062;SDS011;16889;67.864;24.990;2022-09-13T17:33:03;7.47;;;4.53;;
30062;SDS011;16889;67.864;24.990;2022-09-13T17:37:50;5.32;;;4.43;;
30062;SDS011;16889;67.864;24.990;2022-09-13T17:42:36;6.55;;;4.68;;
30062;SDS011;16889;67.864;24.990;2022-09-13T17:47:22;10.02;;;5.55;;
30062;SDS011;16889;67.864;24.990;2022-09-13T17:52:08;10.27;;;5.32;;
30062;SDS011;16889;67.864;24.990;2022-09-13T17:56:54;10.85;;;5.32;;
30062;SDS011;16889;67.864;24.990;2022-09-13T18:01:41;7.72;;;4.40;;
30062;SDS011;16889;67.864;24.990;2022-09-13T18:06:29;6.07;;;4.80;;
30062;SDS011;16889;67.864;24.990;2022-09-13T18:11:15;6.40;;;4.78;;
30062;SDS011;16889;67.864;24.990;2022-09-13T18:16:03;7.80;;;4.37;;
30062;SDS011;16889;67.864;24.990;2022-09-13T18:20:55;8.15;;;4.18;;
30062;SDS011;16889;67.864;24.990;2022-09-13T18:25:41;5.28;;;4.20;;
30062;SDS011;16889;67.864;24.990;2022-09-13T18:30:28;5.45;;;3.67;;
30062;SDS011;16889;67.864;24.990;2022-09-13T18:35:15;4.20;;;3.30;;
30062;SDS011;16889;67.864;24.990;2022-09-13T18:40:01;6.90;;;3.90;;
30062;SDS011;16889;67.864;24.990;2022-09-13T18:44:48;9.65;;;4.53;;
30062;SDS011;16889;67.864;24.990;2022-09-13T18:49:34;4.60;;;3.50;;
30062;SDS011;16889;67.864;24.990;2022-09-13T18:54:20;6.28;;;3.83;;
30062;SDS011;16889;67.864;24.990;2022-09-13T18:59:06;5.75;;;3.90;;
30062;SDS011;16889;67.864;24.990;2022-09-13T19:08:45;7.10;;;4.13;;
30062;SDS011;16889;67.864;24.990;2022-09-13T19:13:31;4.47;;;3.78;;
30062;SDS011;16889;67.864;24.990;2022-09-13T19:18:18;5.95;;;3.90;;
30062;SDS011;16889;67.864;24.990;2022-09-13T19:23:04;4.68;;;3.75;;
30062;SDS011;16889;67.864;24.990;2022-09-13T19:27:51;4.65;;;3.53;;
30062;SDS011;16889;67.864;24.990;2022-09-13T19:32:37;5.35;;;3.20;;
30062;SDS011;16889;67.864;24.990;2022-09-13T19:37:23;4.10;;;3.08;;
30062;SDS011;16889;67.864;24.990;2022-09-13T19:42:09;4.50;;;2.97;;
30062;SDS011;16889;67.864;24.990;2022-09-13T19:46:55;5.20;;;2.38;;
30062;SDS011;16889;67.864;24.990;2022-09-13T19:51:41;2.45;;;2.10;;
30062;SDS011;16889;67.864;24.990;2022-09-13T19:56:29;2.97;;;2.27;;
30062;SDS011;16889;67.864;24.990;2022-09-13T20:01:21;4.00;;;2.70;;
30062;SDS011;16889;67.864;24.990;2022-09-13T20:06:10;3.40;;;2.00;;
30062;SDS011;16889;67.864;24.990;2022-09-13T20:10:56;3.00;;;2.10;;
30062;SDS011;16889;67.864;24.990;2022-09-13T20:15:42;3.22;;;1.67;;
30062;SDS011;16889;67.864;24.990;2022-09-13T20:20:29;2.55;;;2.35;;
30062;SDS011;16889;67.864;24.990;2022-09-13T20:25:18;3.53;;;2.50;;
30062;SDS011;16889;67.864;24.990;2022-09-13T20:30:04;2.42;;;2.22;;
30062;SDS011;16889;67.864;24.990;2022-09-13T20:34:51;4.03;;;2.30;;
30062;SDS011;16889;67.864;24.990;2022-09-13T20:39:37;5.78;;;2.47;;
30062;SDS011;16889;67.864;24.990;2022-09-13T20:44:23;4.70;;;2.85;;
30062;SDS011;16889;67.864;24.990;2022-09-13T20:49:09;5.25;;;2.83;;
30062;SDS011;16889;67.864;24.990;2022-09-13T20:53:56;5.10;;;3.50;;
30062;SDS011;16889;67.864;24.990;2022-09-13T20:58:44;5.75;;;4.10;;
30062;SDS011;16889;67.864;24.990;2022-09-13T21:03:33;4.93;;;4.20;;
30062;SDS011;16889;67.864;24.990;2022-09-13T21:08:23;5.38;;;4.38;;
30062;SDS011;16889;67.864;24.990;2022-09-13T21:13:28;7.55;;;5.00;;
30062;SDS011;16889;67.864;24.990;2022-09-13T21:18:18;7.63;;;4.80;;
30062;SDS011;16889;67.864;24.990;2022-09-13T21:23:03;13.82;;;4.80;;
30062;SDS011;16889;67.864;24.990;2022-09-13T21:27:49;10.82;;;5.95;;
30062;SDS011;16889;67.864;24.990;2022-09-13T21:32:36;8.32;;;6.00;;
30062;SDS011;16889;67.864;24.990;2022-09-13T21:37:21;9.50;;;5.80;;
30062;SDS011;16889;67.864;24.990;2022-09-13T21:42:07;9.70;;;6.22;;
30062;SDS011;16889;67.864;24.990;2022-09-13T21:46:53;13.50;;;7.55;;
30062;SDS011;16889;67.864;24.990;2022-09-13T21:51:43;11.70;;;7.47;;
30062;SDS011;16889;67.864;24.990;2022-09-13T21:56:32;11.98;;;7.60;;
30062;SDS011;16889;67.864;24.990;2022-09-13T22:01:21;13.55;;;8.52;;
30062;SDS011;16889;67.864;24.990;2022-09-13T22:06:08;10.10;;;7.38;;
30062;SDS011;16889;67.864;24.990;2022-09-13T22:15:42;11.65;;;7.07;;
30062;SDS011;16889;67.864;24.990;2022-09-13T22:20:28;11.75;;;6.95;;
30062;SDS011;16889;67.864;24.990;2022-09-13T22:25:14;17.95;;;7.57;;
30062;SDS011;16889;67.864;24.990;2022-09-13T22:29:59;12.45;;;8.02;;
30062;SDS011;16889;67.864;24.990;2022-09-13T22:34:45;13.35;;;8.77;;
30062;SDS011;16889;67.864;24.990;2022-09-13T22:39:31;15.85;;;8.65;;
30062;SDS011;16889;67.864;24.990;2022-09-13T22:44:17;13.02;;;8.68;;
30062;SDS011;16889;67.864;24.990;2022-09-13T22:49:03;14.45;;;8.93;;
30062;SDS011;16889;67.864;24.990;2022-09-13T22:53:50;11.52;;;8.57;;
30062;SDS011;16889;67.864;24.990;2022-09-13T22:58:37;11.73;;;8.80;;
30062;SDS011;16889;67.864;24.990;2022-09-13T23:03:24;12.75;;;8.73;;
30062;SDS011;16889;67.864;24.990;2022-09-13T23:08:10;12.90;;;8.40;;
30062;SDS011;16889;67.864;24.990;2022-09-13T23:12:56;14.43;;;8.95;;
30062;SDS011;16889;67.864;24.990;2022-09-13T23:17:42;14.35;;;8.50;;
30062;SDS011;16889;67.864;24.990;2022-09-13T23:22:28;13.80;;;7.82;;
30062;SDS011;16889;67.864;24.990;2022-09-13T23:27:14;14.50;;;8.70;;
30062;SDS011;16889;67.864;24.990;2022-09-13T23:32:00;16.00;;;9.95;;
30062;SDS011;16889;67.864;24.990;2022-09-13T23:36:46;12.40;;;9.18;;
30062;SDS011;16889;67.864;24.990;2022-09-13T23:41:32;16.27;;;9.40;;
30062;SDS011;16889;67.864;24.990;2022-09-13T23:46:19;16.73;;;10.25;;
30062;SDS011;16889;67.864;24.990;2022-09-13T23:51:06;14.85;;;10.13;;
30062;SDS011;16889;67.864;24.990;2022-09-13T23:55:54;11.73;;;9.02;;
